Lisbon, Indiana
Current Conditions -  °F | °C
As of 7:55 AM on Monday 20 Oct 2014 (Local Time) from KGWB Reporting Station
Scattered Clouds Scattered Clouds  
Wind Chill: 46°   Ceiling: Unl
Heat Index: 48°   Visibility: 10mi
Dew Point: 43°   Wind: 6mph
Humidity: 82%   Direction: 200°SSW
Pressure: 29.88"   Gusts: NA
Location:  41.4608°N, 85.2531°W
Report Text: KGWB 201155Z AUTO 20005KT 10SM SCT075 09/06 A2988 RMK AO2
Loading
Personal Weather Stations






























Interactive Weather Map
Tropical Storm Tracking
New forecast layout! Learn more

10-Day Weather Forecast

Advertisements
Track Severe Weather on mobile